sensor_id;sensor_type;location;lat;lon;timestamp;P1;durP1;ratioP1;P2;durP2;ratioP2
70997;SDS011;58663;52.040;4.634;2022-11-10T00:00:53;16.30;;;3.25;;
70997;SDS011;58663;52.040;4.634;2022-11-10T00:03:19;16.63;;;4.20;;
70997;SDS011;58663;52.040;4.634;2022-11-10T00:05:44;18.02;;;2.88;;
70997;SDS011;58663;52.040;4.634;2022-11-10T00:08:10;17.60;;;3.10;;
70997;SDS011;58663;52.040;4.634;2022-11-10T00:10:39;7.65;;;2.80;;
70997;SDS011;58663;52.040;4.634;2022-11-10T00:13:31;24.73;;;3.65;;
70997;SDS011;58663;52.040;4.634;2022-11-10T00:16:03;12.75;;;2.70;;
70997;SDS011;58663;52.040;4.634;2022-11-10T00:18:48;13.18;;;3.28;;
70997;SDS011;58663;52.040;4.634;2022-11-10T00:21:14;14.60;;;2.65;;
70997;SDS011;58663;52.040;4.634;2022-11-10T00:23:40;10.07;;;2.75;;
70997;SDS011;58663;52.040;4.634;2022-11-10T00:26:16;19.58;;;2.88;;
70997;SDS011;58663;52.040;4.634;2022-11-10T00:28:43;14.75;;;3.40;;
70997;SDS011;58663;52.040;4.634;2022-11-10T00:31:09;14.32;;;2.78;;
70997;SDS011;58663;52.040;4.634;2022-11-10T00:33:36;13.77;;;3.30;;
70997;SDS011;58663;52.040;4.634;2022-11-10T00:36:05;24.40;;;3.37;;
70997;SDS011;58663;52.040;4.634;2022-11-10T00:38:30;13.18;;;3.33;;
70997;SDS011;58663;52.040;4.634;2022-11-10T00:40:57;12.43;;;2.92;;
70997;SDS011;58663;52.040;4.634;2022-11-10T00:43:25;18.48;;;3.35;;
70997;SDS011;58663;52.040;4.634;2022-11-10T00:45:51;9.43;;;3.08;;
70997;SDS011;58663;52.040;4.634;2022-11-10T00:48:17;13.35;;;4.30;;
70997;SDS011;58663;52.040;4.634;2022-11-10T00:50:42;19.60;;;3.20;;
70997;SDS011;58663;52.040;4.634;2022-11-10T00:53:08;21.20;;;3.50;;
70997;SDS011;58663;52.040;4.634;2022-11-10T00:55:36;26.85;;;3.72;;
70997;SDS011;58663;52.040;4.634;2022-11-10T00:58:03;14.00;;;4.22;;
70997;SDS011;58663;52.040;4.634;2022-11-10T01:00:28;18.45;;;3.13;;
70997;SDS011;58663;52.040;4.634;2022-11-10T01:02:54;14.18;;;3.35;;
70997;SDS011;58663;52.040;4.634;2022-11-10T01:05:20;19.23;;;3.70;;
70997;SDS011;58663;52.040;4.634;2022-11-10T01:07:45;15.07;;;3.72;;
70997;SDS011;58663;52.040;4.634;2022-11-10T01:10:10;13.90;;;2.92;;
70997;SDS011;58663;52.040;4.634;2022-11-10T01:12:36;17.80;;;3.42;;
70997;SDS011;58663;52.040;4.634;2022-11-10T01:15:01;18.95;;;3.42;;
70997;SDS011;58663;52.040;4.634;2022-11-10T01:17:29;17.65;;;3.20;;
70997;SDS011;58663;52.040;4.634;2022-11-10T01:19:55;15.60;;;3.38;;
70997;SDS011;58663;52.040;4.634;2022-11-10T01:22:20;20.27;;;3.65;;
70997;SDS011;58663;52.040;4.634;2022-11-10T01:24:45;14.90;;;3.67;;
70997;SDS011;58663;52.040;4.634;2022-11-10T01:27:11;20.33;;;2.90;;
70997;SDS011;58663;52.040;4.634;2022-11-10T01:29:36;15.43;;;3.72;;
70997;SDS011;58663;52.040;4.634;2022-11-10T01:32:02;21.85;;;3.30;;
70997;SDS011;58663;52.040;4.634;2022-11-10T01:34:27;14.02;;;3.33;;
70997;SDS011;58663;52.040;4.634;2022-11-10T01:36:52;24.48;;;3.63;;
70997;SDS011;58663;52.040;4.634;2022-11-10T01:39:18;18.55;;;3.17;;
70997;SDS011;58663;52.040;4.634;2022-11-10T01:41:43;24.05;;;3.25;;
70997;SDS011;58663;52.040;4.634;2022-11-10T01:44:10;18.10;;;2.72;;
70997;SDS011;58663;52.040;4.634;2022-11-10T01:46:37;13.88;;;3.20;;
70997;SDS011;58663;52.040;4.634;2022-11-10T01:49:02;26.15;;;3.53;;
70997;SDS011;58663;52.040;4.634;2022-11-10T01:51:33;19.23;;;3.33;;
70997;SDS011;58663;52.040;4.634;2022-11-10T01:54:12;13.82;;;3.08;;
70997;SDS011;58663;52.040;4.634;2022-11-10T01:56:42;20.75;;;3.17;;
70997;SDS011;58663;52.040;4.634;2022-11-10T01:59:11;24.77;;;4.10;;
70997;SDS011;58663;52.040;4.634;2022-11-10T02:01:38;20.23;;;3.63;;
70997;SDS011;58663;52.040;4.634;2022-11-10T02:04:05;18.20;;;3.30;;
70997;SDS011;58663;52.040;4.634;2022-11-10T02:06:33;18.40;;;2.83;;
70997;SDS011;58663;52.040;4.634;2022-11-10T02:09:01;19.02;;;3.13;;
70997;SDS011;58663;52.040;4.634;2022-11-10T02:11:28;13.70;;;3.08;;
70997;SDS011;58663;52.040;4.634;2022-11-10T02:13:53;21.08;;;3.00;;
70997;SDS011;58663;52.040;4.634;2022-11-10T02:16:19;20.88;;;3.35;;
70997;SDS011;58663;52.040;4.634;2022-11-10T02:18:45;19.52;;;2.90;;
70997;SDS011;58663;52.040;4.634;2022-11-10T02:21:11;18.55;;;3.05;;
70997;SDS011;58663;52.040;4.634;2022-11-10T02:23:44;23.73;;;3.55;;
70997;SDS011;58663;52.040;4.634;2022-11-10T02:26:10;28.47;;;3.60;;
70997;SDS011;58663;52.040;4.634;2022-11-10T02:28:36;11.65;;;2.95;;
70997;SDS011;58663;52.040;4.634;2022-11-10T02:31:02;15.48;;;3.30;;
70997;SDS011;58663;52.040;4.634;2022-11-10T02:33:28;17.55;;;3.47;;
70997;SDS011;58663;52.040;4.634;2022-11-10T02:35:54;18.55;;;3.05;;
70997;SDS011;58663;52.040;4.634;2022-11-10T02:38:20;19.00;;;3.75;;
70997;SDS011;58663;52.040;4.634;2022-11-10T02:40:47;21.77;;;3.08;;
70997;SDS011;58663;52.040;4.634;2022-11-10T02:43:13;16.35;;;2.95;;
70997;SDS011;58663;52.040;4.634;2022-11-10T02:45:39;13.27;;;2.60;;
70997;SDS011;58663;52.040;4.634;2022-11-10T02:48:11;20.83;;;3.00;;
70997;SDS011;58663;52.040;4.634;2022-11-10T02:50:38;11.05;;;2.33;;
70997;SDS011;58663;52.040;4.634;2022-11-10T02:53:04;12.05;;;2.72;;
70997;SDS011;58663;52.040;4.634;2022-11-10T02:55:29;14.93;;;3.13;;
70997;SDS011;58663;52.040;4.634;2022-11-10T02:57:55;17.08;;;2.50;;
70997;SDS011;58663;52.040;4.634;2022-11-10T03:00:20;12.40;;;2.38;;
70997;SDS011;58663;52.040;4.634;2022-11-10T03:02:46;23.30;;;3.50;;
70997;SDS011;58663;52.040;4.634;2022-11-10T03:05:11;20.42;;;3.08;;
70997;SDS011;58663;52.040;4.634;2022-11-10T03:07:36;18.00;;;3.25;;
70997;SDS011;58663;52.040;4.634;2022-11-10T03:10:02;17.83;;;3.60;;
70997;SDS011;58663;52.040;4.634;2022-11-10T03:12:28;14.25;;;2.10;;
70997;SDS011;58663;52.040;4.634;2022-11-10T03:14:53;21.42;;;2.85;;
70997;SDS011;58663;52.040;4.634;2022-11-10T03:17:19;22.13;;;2.75;;
70997;SDS011;58663;52.040;4.634;2022-11-10T03:19:45;21.95;;;2.30;;
70997;SDS011;58663;52.040;4.634;2022-11-10T03:22:11;17.33;;;2.95;;
70997;SDS011;58663;52.040;4.634;2022-11-10T03:24:36;16.83;;;3.80;;
70997;SDS011;58663;52.040;4.634;2022-11-10T03:27:01;23.63;;;3.60;;
70997;SDS011;58663;52.040;4.634;2022-11-10T03:29:27;18.63;;;2.58;;
70997;SDS011;58663;52.040;4.634;2022-11-10T03:31:52;16.13;;;2.88;;
70997;SDS011;58663;52.040;4.634;2022-11-10T03:34:18;23.63;;;3.33;;
70997;SDS011;58663;52.040;4.634;2022-11-10T03:36:43;19.45;;;2.45;;
70997;SDS011;58663;52.040;4.634;2022-11-10T03:39:09;19.23;;;2.90;;
70997;SDS011;58663;52.040;4.634;2022-11-10T03:41:34;27.27;;;3.30;;
70997;SDS011;58663;52.040;4.634;2022-11-10T03:43:59;16.70;;;2.72;;
70997;SDS011;58663;52.040;4.634;2022-11-10T03:46:25;23.45;;;3.15;;
70997;SDS011;58663;52.040;4.634;2022-11-10T03:48:50;19.48;;;3.00;;
70997;SDS011;58663;52.040;4.634;2022-11-10T03:51:16;27.52;;;2.70;;
70997;SDS011;58663;52.040;4.634;2022-11-10T03:53:41;19.35;;;2.80;;
70997;SDS011;58663;52.040;4.634;2022-11-10T03:56:06;19.13;;;2.60;;
70997;SDS011;58663;52.040;4.634;2022-11-10T03:58:32;27.58;;;2.58;;
70997;SDS011;58663;52.040;4.634;2022-11-10T04:00:57;20.88;;;2.83;;
70997;SDS011;58663;52.040;4.634;2022-11-10T04:03:23;23.17;;;2.90;;
70997;SDS011;58663;52.040;4.634;2022-11-10T04:05:49;24.33;;;3.47;;
70997;SDS011;58663;52.040;4.634;2022-11-10T04:08:33;13.00;;;2.70;;
70997;SDS011;58663;52.040;4.634;2022-11-10T04:11:20;17.10;;;2.85;;
70997;SDS011;58663;52.040;4.634;2022-11-10T04:14:11;22.50;;;3.58;;
70997;SDS011;58663;52.040;4.634;2022-11-10T04:16:56;26.42;;;2.97;;
70997;SDS011;58663;52.040;4.634;2022-11-10T04:19:22;46.15;;;3.17;;
70997;SDS011;58663;52.040;4.634;2022-11-10T04:21:48;15.45;;;2.42;;
70997;SDS011;58663;52.040;4.634;2022-11-10T04:24:13;18.80;;;3.22;;
70997;SDS011;58663;52.040;4.634;2022-11-10T04:26:39;28.52;;;3.17;;
70997;SDS011;58663;52.040;4.634;2022-11-10T04:29:07;15.15;;;2.90;;
70997;SDS011;58663;52.040;4.634;2022-11-10T04:31:34;23.88;;;2.90;;
70997;SDS011;58663;52.040;4.634;2022-11-10T04:34:02;16.75;;;3.55;;
70997;SDS011;58663;52.040;4.634;2022-11-10T04:36:29;23.40;;;4.30;;
70997;SDS011;58663;52.040;4.634;2022-11-10T04:38:56;21.48;;;3.53;;
70997;SDS011;58663;52.040;4.634;2022-11-10T04:41:22;29.15;;;4.18;;
70997;SDS011;58663;52.040;4.634;2022-11-10T04:43:48;24.52;;;3.63;;
70997;SDS011;58663;52.040;4.634;2022-11-10T04:46:19;19.38;;;3.80;;
70997;SDS011;58663;52.040;4.634;2022-11-10T04:48:52;24.33;;;3.75;;
70997;SDS011;58663;52.040;4.634;2022-11-10T04:51:18;22.85;;;4.22;;
70997;SDS011;58663;52.040;4.634;2022-11-10T04:53:45;17.73;;;3.83;;
70997;SDS011;58663;52.040;4.634;2022-11-10T04:56:17;24.15;;;4.25;;
70997;SDS011;58663;52.040;4.634;2022-11-10T04:58:44;24.77;;;4.18;;
70997;SDS011;58663;52.040;4.634;2022-11-10T05:01:10;14.80;;;4.00;;
70997;SDS011;58663;52.040;4.634;2022-11-10T05:03:37;24.38;;;5.22;;
70997;SDS011;58663;52.040;4.634;2022-11-10T05:06:02;27.40;;;4.88;;
70997;SDS011;58663;52.040;4.634;2022-11-10T05:08:28;20.17;;;4.40;;
70997;SDS011;58663;52.040;4.634;2022-11-10T05:10:54;29.05;;;5.10;;
70997;SDS011;58663;52.040;4.634;2022-11-10T05:13:19;27.83;;;5.20;;
70997;SDS011;58663;52.040;4.634;2022-11-10T05:15:44;18.65;;;4.60;;
70997;SDS011;58663;52.040;4.634;2022-11-10T05:18:10;14.77;;;3.80;;
70997;SDS011;58663;52.040;4.634;2022-11-10T05:20:35;27.48;;;4.65;;
70997;SDS011;58663;52.040;4.634;2022-11-10T05:23:00;25.00;;;4.93;;
70997;SDS011;58663;52.040;4.634;2022-11-10T05:25:44;17.30;;;4.20;;
70997;SDS011;58663;52.040;4.634;2022-11-10T05:28:10;21.92;;;3.70;;
70997;SDS011;58663;52.040;4.634;2022-11-10T05:30:37;26.70;;;4.38;;
70997;SDS011;58663;52.040;4.634;2022-11-10T05:33:03;21.13;;;3.95;;
70997;SDS011;58663;52.040;4.634;2022-11-10T05:35:29;29.92;;;4.88;;
70997;SDS011;58663;52.040;4.634;2022-11-10T05:37:55;22.33;;;4.30;;
70997;SDS011;58663;52.040;4.634;2022-11-10T05:40:20;25.20;;;5.10;;
70997;SDS011;58663;52.040;4.634;2022-11-10T05:42:46;29.25;;;4.50;;
70997;SDS011;58663;52.040;4.634;2022-11-10T05:45:19;29.05;;;4.55;;
70997;SDS011;58663;52.040;4.634;2022-11-10T05:47:45;19.77;;;4.75;;
70997;SDS011;58663;52.040;4.634;2022-11-10T05:50:11;23.98;;;4.07;;
70997;SDS011;58663;52.040;4.634;2022-11-10T05:52:50;30.02;;;4.22;;
70997;SDS011;58663;52.040;4.634;2022-11-10T05:55:18;28.38;;;4.28;;
70997;SDS011;58663;52.040;4.634;2022-11-10T05:57:45;21.77;;;4.03;;
70997;SDS011;58663;52.040;4.634;2022-11-10T06:00:13;16.38;;;4.13;;
70997;SDS011;58663;52.040;4.634;2022-11-10T06:02:45;23.77;;;3.60;;
70997;SDS011;58663;52.040;4.634;2022-11-10T06:05:20;33.00;;;4.18;;
70997;SDS011;58663;52.040;4.634;2022-11-10T06:07:45;31.75;;;3.97;;
70997;SDS011;58663;52.040;4.634;2022-11-10T06:10:10;26.20;;;3.53;;
70997;SDS011;58663;52.040;4.634;2022-11-10T06:12:36;19.05;;;3.90;;
70997;SDS011;58663;52.040;4.634;2022-11-10T06:15:01;13.57;;;3.17;;
70997;SDS011;58663;52.040;4.634;2022-11-10T06:17:28;31.33;;;4.00;;
70997;SDS011;58663;52.040;4.634;2022-11-10T06:19:53;27.50;;;3.90;;
70997;SDS011;58663;52.040;4.634;2022-11-10T06:22:19;19.13;;;4.65;;
70997;SDS011;58663;52.040;4.634;2022-11-10T06:24:44;26.35;;;4.45;;
70997;SDS011;58663;52.040;4.634;2022-11-10T06:27:10;26.70;;;4.55;;
70997;SDS011;58663;52.040;4.634;2022-11-10T06:29:36;16.88;;;3.78;;
70997;SDS011;58663;52.040;4.634;2022-11-10T06:32:01;18.42;;;4.32;;
70997;SDS011;58663;52.040;4.634;2022-11-10T06:34:27;23.70;;;3.67;;
70997;SDS011;58663;52.040;4.634;2022-11-10T06:36:52;16.27;;;3.38;;
70997;SDS011;58663;52.040;4.634;2022-11-10T06:39:18;24.98;;;4.22;;
70997;SDS011;58663;52.040;4.634;2022-11-10T06:41:43;23.75;;;4.38;;
70997;SDS011;58663;52.040;4.634;2022-11-10T06:44:08;18.85;;;3.30;;
70997;SDS011;58663;52.040;4.634;2022-11-10T06:46:35;21.77;;;3.97;;
70997;SDS011;58663;52.040;4.634;2022-11-10T06:49:01;19.27;;;3.47;;
70997;SDS011;58663;52.040;4.634;2022-11-10T06:51:29;27.55;;;4.55;;
70997;SDS011;58663;52.040;4.634;2022-11-10T06:53:55;27.42;;;4.55;;
70997;SDS011;58663;52.040;4.634;2022-11-10T06:56:22;18.70;;;3.55;;
70997;SDS011;58663;52.040;4.634;2022-11-10T06:58:51;24.80;;;3.88;;
70997;SDS011;58663;52.040;4.634;2022-11-10T07:01:19;23.67;;;4.18;;
70997;SDS011;58663;52.040;4.634;2022-11-10T07:03:45;27.52;;;4.25;;
70997;SDS011;58663;52.040;4.634;2022-11-10T07:06:11;27.77;;;4.85;;
70997;SDS011;58663;52.040;4.634;2022-11-10T07:08:36;12.98;;;3.80;;
70997;SDS011;58663;52.040;4.634;2022-11-10T07:11:04;28.88;;;3.70;;
70997;SDS011;58663;52.040;4.634;2022-11-10T07:13:30;15.88;;;3.72;;
70997;SDS011;58663;52.040;4.634;2022-11-10T07:15:55;25.67;;;4.60;;
70997;SDS011;58663;52.040;4.634;2022-11-10T07:18:21;24.27;;;4.18;;
70997;SDS011;58663;52.040;4.634;2022-11-10T07:20:47;26.10;;;4.32;;
70997;SDS011;58663;52.040;4.634;2022-11-10T07:23:13;29.58;;;4.40;;
70997;SDS011;58663;52.040;4.634;2022-11-10T07:25:38;22.00;;;4.32;;
70997;SDS011;58663;52.040;4.634;2022-11-10T07:28:05;32.65;;;5.70;;
70997;SDS011;58663;52.040;4.634;2022-11-10T07:30:32;20.02;;;5.13;;
70997;SDS011;58663;52.040;4.634;2022-11-10T07:33:10;32.30;;;5.15;;
70997;SDS011;58663;52.040;4.634;2022-11-10T07:35:37;35.63;;;5.88;;
70997;SDS011;58663;52.040;4.634;2022-11-10T07:38:04;14.13;;;4.90;;
70997;SDS011;58663;52.040;4.634;2022-11-10T07:40:30;17.15;;;3.60;;
70997;SDS011;58663;52.040;4.634;2022-11-10T07:42:56;35.83;;;4.93;;
70997;SDS011;58663;52.040;4.634;2022-11-10T07:45:22;28.38;;;4.90;;
70997;SDS011;58663;52.040;4.634;2022-11-10T07:47:47;34.95;;;6.18;;
70997;SDS011;58663;52.040;4.634;2022-11-10T07:50:16;26.70;;;4.75;;
70997;SDS011;58663;52.040;4.634;2022-11-10T07:52:49;23.33;;;4.38;;
70997;SDS011;58663;52.040;4.634;2022-11-10T07:55:15;17.15;;;4.43;;
70997;SDS011;58663;52.040;4.634;2022-11-10T07:57:40;21.27;;;4.05;;
70997;SDS011;58663;52.040;4.634;2022-11-10T08:00:06;33.60;;;4.95;;
70997;SDS011;58663;52.040;4.634;2022-11-10T08:02:32;27.20;;;4.65;;
70997;SDS011;58663;52.040;4.634;2022-11-10T08:04:57;23.60;;;5.03;;
70997;SDS011;58663;52.040;4.634;2022-11-10T08:07:23;34.63;;;4.95;;
70997;SDS011;58663;52.040;4.634;2022-11-10T08:09:48;20.20;;;4.60;;
70997;SDS011;58663;52.040;4.634;2022-11-10T08:12:16;32.03;;;5.07;;
70997;SDS011;58663;52.040;4.634;2022-11-10T08:14:42;19.75;;;4.18;;
70997;SDS011;58663;52.040;4.634;2022-11-10T08:17:07;31.88;;;4.63;;
70997;SDS011;58663;52.040;4.634;2022-11-10T08:19:32;31.25;;;4.80;;
70997;SDS011;58663;52.040;4.634;2022-11-10T08:21:58;27.27;;;4.80;;
70997;SDS011;58663;52.040;4.634;2022-11-10T08:24:29;22.27;;;4.85;;
70997;SDS011;58663;52.040;4.634;2022-11-10T08:26:55;26.00;;;3.75;;
70997;SDS011;58663;52.040;4.634;2022-11-10T08:29:20;29.92;;;4.78;;
70997;SDS011;58663;52.040;4.634;2022-11-10T08:31:45;19.80;;;3.67;;
70997;SDS011;58663;52.040;4.634;2022-11-10T08:34:11;19.38;;;3.72;;
70997;SDS011;58663;52.040;4.634;2022-11-10T08:36:36;13.00;;;3.30;;
70997;SDS011;58663;52.040;4.634;2022-11-10T08:39:02;20.90;;;5.10;;
70997;SDS011;58663;52.040;4.634;2022-11-10T08:41:27;15.27;;;3.55;;
70997;SDS011;58663;52.040;4.634;2022-11-10T08:43:53;25.35;;;4.28;;
70997;SDS011;58663;52.040;4.634;2022-11-10T08:46:18;24.48;;;4.60;;
70997;SDS011;58663;52.040;4.634;2022-11-10T08:48:44;18.10;;;3.30;;
70997;SDS011;58663;52.040;4.634;2022-11-10T08:51:09;21.92;;;3.85;;
70997;SDS011;58663;52.040;4.634;2022-11-10T08:53:35;24.33;;;3.70;;
70997;SDS011;58663;52.040;4.634;2022-11-10T08:56:00;30.52;;;4.15;;
70997;SDS011;58663;52.040;4.634;2022-11-10T08:58:26;21.95;;;4.93;;
70997;SDS011;58663;52.040;4.634;2022-11-10T09:00:51;20.42;;;3.75;;
70997;SDS011;58663;52.040;4.634;2022-11-10T09:03:18;17.80;;;3.88;;
70997;SDS011;58663;52.040;4.634;2022-11-10T09:05:45;15.05;;;3.40;;
70997;SDS011;58663;52.040;4.634;2022-11-10T09:08:11;25.77;;;4.38;;
70997;SDS011;58663;52.040;4.634;2022-11-10T09:10:38;19.33;;;3.30;;
70997;SDS011;58663;52.040;4.634;2022-11-10T09:13:05;21.95;;;3.55;;
70997;SDS011;58663;52.040;4.634;2022-11-10T09:15:31;22.58;;;3.90;;
70997;SDS011;58663;52.040;4.634;2022-11-10T09:17:57;16.40;;;3.15;;
70997;SDS011;58663;52.040;4.634;2022-11-10T09:20:23;19.15;;;3.38;;
70997;SDS011;58663;52.040;4.634;2022-11-10T09:22:49;18.35;;;3.15;;
70997;SDS011;58663;52.040;4.634;2022-11-10T09:25:14;15.85;;;3.00;;
70997;SDS011;58663;52.040;4.634;2022-11-10T09:27:40;12.70;;;3.20;;
70997;SDS011;58663;52.040;4.634;2022-11-10T09:30:05;15.30;;;2.92;;
70997;SDS011;58663;52.040;4.634;2022-11-10T09:32:31;20.73;;;3.20;;
70997;SDS011;58663;52.040;4.634;2022-11-10T09:34:57;12.77;;;3.13;;
70997;SDS011;58663;52.040;4.634;2022-11-10T09:37:23;19.10;;;3.63;;
70997;SDS011;58663;52.040;4.634;2022-11-10T09:39:49;13.75;;;3.70;;
70997;SDS011;58663;52.040;4.634;2022-11-10T09:44:50;10.52;;;2.65;;
70997;SDS011;58663;52.040;4.634;2022-11-10T09:47:21;18.67;;;3.38;;
70997;SDS011;58663;52.040;4.634;2022-11-10T09:49:52;12.43;;;3.23;;
70997;SDS011;58663;52.040;4.634;2022-11-10T09:52:50;14.23;;;3.10;;
70997;SDS011;58663;52.040;4.634;2022-11-10T09:56:08;18.63;;;2.65;;
70997;SDS011;58663;52.040;4.634;2022-11-10T09:59:09;23.52;;;3.55;;
70997;SDS011;58663;52.040;4.634;2022-11-10T10:16:20;14.77;;;3.20;;
70997;SDS011;58663;52.040;4.634;2022-11-10T10:24:13;18.00;;;2.70;;
70997;SDS011;58663;52.040;4.634;2022-11-10T10:26:40;18.25;;;2.85;;
70997;SDS011;58663;52.040;4.634;2022-11-10T10:29:11;11.23;;;2.63;;
70997;SDS011;58663;52.040;4.634;2022-11-10T10:31:48;19.00;;;2.90;;
70997;SDS011;58663;52.040;4.634;2022-11-10T10:34:15;13.20;;;2.67;;
70997;SDS011;58663;52.040;4.634;2022-11-10T10:36:43;16.45;;;3.08;;
70997;SDS011;58663;52.040;4.634;2022-11-10T10:39:43;15.77;;;2.53;;
70997;SDS011;58663;52.040;4.634;2022-11-10T10:42:08;18.40;;;2.22;;
70997;SDS011;58663;52.040;4.634;2022-11-10T10:45:08;13.65;;;2.60;;
70997;SDS011;58663;52.040;4.634;2022-11-10T10:47:39;11.52;;;2.47;;
70997;SDS011;58663;52.040;4.634;2022-11-10T10:50:24;14.25;;;2.38;;
70997;SDS011;58663;52.040;4.634;2022-11-10T10:53:08;20.27;;;2.65;;
70997;SDS011;58663;52.040;4.634;2022-11-10T10:55:36;13.95;;;2.47;;
70997;SDS011;58663;52.040;4.634;2022-11-10T10:58:17;17.40;;;2.85;;
70997;SDS011;58663;52.040;4.634;2022-11-10T11:00:43;17.25;;;2.28;;
70997;SDS011;58663;52.040;4.634;2022-11-10T11:03:18;13.55;;;2.38;;
70997;SDS011;58663;52.040;4.634;2022-11-10T11:05:58;13.18;;;2.25;;
70997;SDS011;58663;52.040;4.634;2022-11-10T11:08:26;9.75;;;2.60;;
70997;SDS011;58663;52.040;4.634;2022-11-10T11:10:51;17.92;;;3.10;;
70997;SDS011;58663;52.040;4.634;2022-11-10T11:13:21;9.07;;;2.40;;
70997;SDS011;58663;52.040;4.634;2022-11-10T11:15:58;12.52;;;2.33;;
70997;SDS011;58663;52.040;4.634;2022-11-10T11:18:25;14.07;;;2.40;;
70997;SDS011;58663;52.040;4.634;2022-11-10T11:26:06;11.02;;;2.22;;
70997;SDS011;58663;52.040;4.634;2022-11-10T11:36:40;11.88;;;1.85;;
70997;SDS011;58663;52.040;4.634;2022-11-10T12:01:28;9.23;;;2.33;;
70997;SDS011;58663;52.040;4.634;2022-11-10T12:05:05;12.65;;;2.28;;
70997;SDS011;58663;52.040;4.634;2022-11-10T12:09:46;12.50;;;2.47;;
70997;SDS011;58663;52.040;4.634;2022-11-10T12:15:09;10.77;;;4.00;;
70997;SDS011;58663;52.040;4.634;2022-11-10T12:17:48;7.57;;;2.30;;
70997;SDS011;58663;52.040;4.634;2022-11-10T12:23:04;12.15;;;2.42;;
70997;SDS011;58663;52.040;4.634;2022-11-10T12:28:47;6.68;;;2.00;;
70997;SDS011;58663;52.040;4.634;2022-11-10T12:31:16;10.57;;;2.20;;
70997;SDS011;58663;52.040;4.634;2022-11-10T12:33:52;8.10;;;2.17;;
70997;SDS011;58663;52.040;4.634;2022-11-10T12:36:21;10.35;;;2.40;;
70997;SDS011;58663;52.040;4.634;2022-11-10T12:39:01;7.47;;;2.50;;
70997;SDS011;58663;52.040;4.634;2022-11-10T12:41:29;7.60;;;2.00;;
70997;SDS011;58663;52.040;4.634;2022-11-10T12:46:37;10.77;;;2.72;;
70997;SDS011;58663;52.040;4.634;2022-11-10T12:54:00;14.85;;;2.50;;
70997;SDS011;58663;52.040;4.634;2022-11-10T13:01:44;15.35;;;2.45;;
70997;SDS011;58663;52.040;4.634;2022-11-10T13:04:14;14.07;;;2.60;;
70997;SDS011;58663;52.040;4.634;2022-11-10T13:06:50;10.88;;;2.47;;
70997;SDS011;58663;52.040;4.634;2022-11-10T13:09:24;8.63;;;2.13;;
70997;SDS011;58663;52.040;4.634;2022-11-10T13:14:42;15.20;;;2.22;;
70997;SDS011;58663;52.040;4.634;2022-11-10T13:17:09;11.43;;;2.22;;
70997;SDS011;58663;52.040;4.634;2022-11-10T13:19:56;8.75;;;2.03;;
70997;SDS011;58663;52.040;4.634;2022-11-10T13:22:30;12.65;;;2.40;;
70997;SDS011;58663;52.040;4.634;2022-11-10T13:28:01;9.77;;;2.20;;
70997;SDS011;58663;52.040;4.634;2022-11-10T13:35:50;10.88;;;2.47;;
70997;SDS011;58663;52.040;4.634;2022-11-10T13:38:35;8.70;;;2.60;;
70997;SDS011;58663;52.040;4.634;2022-11-10T13:43:49;8.13;;;2.30;;
70997;SDS011;58663;52.040;4.634;2022-11-10T13:46:19;8.88;;;1.98;;
70997;SDS011;58663;52.040;4.634;2022-11-10T13:51:54;16.00;;;2.35;;
70997;SDS011;58663;52.040;4.634;2022-11-10T13:57:35;15.63;;;2.10;;
70997;SDS011;58663;52.040;4.634;2022-11-10T14:02:45;10.10;;;2.25;;
70997;SDS011;58663;52.040;4.634;2022-11-10T14:10:33;9.55;;;2.72;;
70997;SDS011;58663;52.040;4.634;2022-11-10T14:13:03;7.78;;;2.20;;
70997;SDS011;58663;52.040;4.634;2022-11-10T14:15:38;13.48;;;1.90;;
70997;SDS011;58663;52.040;4.634;2022-11-10T14:20:55;7.63;;;2.17;;
70997;SDS011;58663;52.040;4.634;2022-11-10T14:23:25;7.68;;;1.80;;
70997;SDS011;58663;52.040;4.634;2022-11-10T14:25:59;7.45;;;1.80;;
70997;SDS011;58663;52.040;4.634;2022-11-10T14:28:32;5.38;;;1.95;;
70997;SDS011;58663;52.040;4.634;2022-11-10T14:30:58;10.70;;;2.30;;
70997;SDS011;58663;52.040;4.634;2022-11-10T14:33:25;6.10;;;1.70;;
70997;SDS011;58663;52.040;4.634;2022-11-10T14:38:24;16.20;;;2.53;;
70997;SDS011;58663;52.040;4.634;2022-11-10T14:40:54;8.82;;;2.03;;
70997;SDS011;58663;52.040;4.634;2022-11-10T14:43:29;17.20;;;2.58;;
70997;SDS011;58663;52.040;4.634;2022-11-10T14:45:59;8.55;;;2.20;;
70997;SDS011;58663;52.040;4.634;2022-11-10T14:48:28;8.95;;;2.15;;
70997;SDS011;58663;52.040;4.634;2022-11-10T14:51:11;7.25;;;1.92;;
70997;SDS011;58663;52.040;4.634;2022-11-10T14:53:39;7.30;;;1.92;;
70997;SDS011;58663;52.040;4.634;2022-11-10T14:56:14;7.43;;;2.03;;
70997;SDS011;58663;52.040;4.634;2022-11-10T14:58:41;6.22;;;2.38;;
70997;SDS011;58663;52.040;4.634;2022-11-10T15:01:30;9.35;;;2.38;;
70997;SDS011;58663;52.040;4.634;2022-11-10T15:03:58;9.80;;;2.80;;
70997;SDS011;58663;52.040;4.634;2022-11-10T15:06:24;6.60;;;1.70;;
70997;SDS011;58663;52.040;4.634;2022-11-10T15:08:50;8.38;;;1.95;;
70997;SDS011;58663;52.040;4.634;2022-11-10T15:17:15;8.10;;;2.15;;
70997;SDS011;58663;52.040;4.634;2022-11-10T15:25:05;12.27;;;2.75;;
70997;SDS011;58663;52.040;4.634;2022-11-10T15:27:32;9.07;;;2.20;;
70997;SDS011;58663;52.040;4.634;2022-11-10T15:29:59;8.23;;;2.65;;
70997;SDS011;58663;52.040;4.634;2022-11-10T15:32:29;17.48;;;2.55;;
70997;SDS011;58663;52.040;4.634;2022-11-10T15:35:08;7.20;;;3.38;;
70997;SDS011;58663;52.040;4.634;2022-11-10T15:37:35;17.75;;;2.67;;
70997;SDS011;58663;52.040;4.634;2022-11-10T15:43:11;8.95;;;2.22;;
70997;SDS011;58663;52.040;4.634;2022-11-10T15:45:39;8.18;;;3.08;;
70997;SDS011;58663;52.040;4.634;2022-11-10T15:48:12;11.73;;;2.50;;
70997;SDS011;58663;52.040;4.634;2022-11-10T15:50:39;5.00;;;1.67;;
70997;SDS011;58663;52.040;4.634;2022-11-10T15:53:07;13.15;;;2.53;;
70997;SDS011;58663;52.040;4.634;2022-11-10T15:55:37;8.48;;;2.22;;
70997;SDS011;58663;52.040;4.634;2022-11-10T15:58:07;5.75;;;2.05;;
70997;SDS011;58663;52.040;4.634;2022-11-10T16:00:36;10.80;;;2.53;;
70997;SDS011;58663;52.040;4.634;2022-11-10T16:03:02;8.73;;;2.25;;
70997;SDS011;58663;52.040;4.634;2022-11-10T16:05:28;6.65;;;2.05;;
70997;SDS011;58663;52.040;4.634;2022-11-10T16:07:53;6.65;;;2.10;;
70997;SDS011;58663;52.040;4.634;2022-11-10T16:10:18;8.10;;;2.90;;
70997;SDS011;58663;52.040;4.634;2022-11-10T16:12:44;7.68;;;2.20;;
70997;SDS011;58663;52.040;4.634;2022-11-10T16:15:14;10.88;;;2.67;;
70997;SDS011;58663;52.040;4.634;2022-11-10T16:17:42;9.27;;;2.40;;
70997;SDS011;58663;52.040;4.634;2022-11-10T16:20:14;11.00;;;2.85;;
70997;SDS011;58663;52.040;4.634;2022-11-10T16:22:39;6.30;;;2.15;;
70997;SDS011;58663;52.040;4.634;2022-11-10T16:25:05;9.93;;;1.75;;
70997;SDS011;58663;52.040;4.634;2022-11-10T16:27:30;8.95;;;1.88;;
70997;SDS011;58663;52.040;4.634;2022-11-10T16:29:56;7.13;;;2.33;;
70997;SDS011;58663;52.040;4.634;2022-11-10T16:32:21;7.45;;;2.15;;
70997;SDS011;58663;52.040;4.634;2022-11-10T16:34:46;7.03;;;2.00;;
70997;SDS011;58663;52.040;4.634;2022-11-10T16:37:12;8.05;;;2.05;;
70997;SDS011;58663;52.040;4.634;2022-11-10T16:39:38;6.57;;;1.90;;
70997;SDS011;58663;52.040;4.634;2022-11-10T16:42:03;10.30;;;1.88;;
70997;SDS011;58663;52.040;4.634;2022-11-10T16:44:28;12.32;;;2.30;;
70997;SDS011;58663;52.040;4.634;2022-11-10T16:46:54;6.40;;;2.58;;
70997;SDS011;58663;52.040;4.634;2022-11-10T16:51:53;4.75;;;2.33;;
70997;SDS011;58663;52.040;4.634;2022-11-10T16:54:18;9.10;;;2.33;;
70997;SDS011;58663;52.040;4.634;2022-11-10T16:56:44;8.63;;;2.40;;